sensor_id;sensor_type;location;lat;lon;timestamp;pressure;altitude;pressure_sealevel;temperature;humidity
73748;BME280;62056;52.130;5.428;2022-09-27T00:01:47;99903.50;;;9.82;89.45
73748;BME280;62056;52.130;5.428;2022-09-27T00:04:13;99903.81;;;9.80;89.59
73748;BME280;62056;52.130;5.428;2022-09-27T00:06:40;99911.56;;;9.77;89.30
73748;BME280;62056;52.130;5.428;2022-09-27T00:09:07;99916.13;;;9.76;88.77
73748;BME280;62056;52.130;5.428;2022-09-27T00:11:37;99918.00;;;9.76;89.52
73748;BME280;62056;52.130;5.428;2022-09-27T00:14:05;99926.25;;;9.74;89.13
73748;BME280;62056;52.130;5.428;2022-09-27T00:16:35;99912.97;;;9.74;89.83
73748;BME280;62056;52.130;5.428;2022-09-27T00:19:06;99915.63;;;9.74;89.23
73748;BME280;62056;52.130;5.428;2022-09-27T00:21:33;99920.16;;;9.73;89.49
73748;BME280;62056;52.130;5.428;2022-09-27T00:24:00;99916.72;;;9.73;89.41
73748;BME280;62056;52.130;5.428;2022-09-27T00:26:27;99918.59;;;9.72;89.36
73748;BME280;62056;52.130;5.428;2022-09-27T00:28:54;99917.03;;;9.71;89.58
73748;BME280;62056;52.130;5.428;2022-09-27T00:31:24;99910.13;;;9.70;89.83
73748;BME280;62056;52.130;5.428;2022-09-27T00:33:52;99911.22;;;9.69;89.30
73748;BME280;62056;52.130;5.428;2022-09-27T00:36:20;99913.13;;;9.69;89.05
73748;BME280;62056;52.130;5.428;2022-09-27T00:38:47;99916.06;;;9.67;89.02
73748;BME280;62056;52.130;5.428;2022-09-27T00:41:16;99911.03;;;9.66;88.89
73748;BME280;62056;52.130;5.428;2022-09-27T00:43:48;99909.50;;;9.65;89.29
73748;BME280;62056;52.130;5.428;2022-09-27T00:46:23;99905.25;;;9.64;89.57
73748;BME280;62056;52.130;5.428;2022-09-27T00:48:59;99905.53;;;9.62;88.96
73748;BME280;62056;52.130;5.428;2022-09-27T00:51:26;99904.78;;;9.62;89.06
73748;BME280;62056;52.130;5.428;2022-09-27T00:53:53;99910.69;;;9.59;88.88
73748;BME280;62056;52.130;5.428;2022-09-27T00:56:25;99915.19;;;9.58;89.10
73748;BME280;62056;52.130;5.428;2022-09-27T00:59:00;99917.06;;;9.58;89.66
73748;BME280;62056;52.130;5.428;2022-09-27T01:01:28;99918.47;;;9.55;89.20
73748;BME280;62056;52.130;5.428;2022-09-27T01:04:08;99925.66;;;9.55;89.77
73748;BME280;62056;52.130;5.428;2022-09-27T01:06:35;99924.38;;;9.52;88.82
73748;BME280;62056;52.130;5.428;2022-09-27T01:09:05;99936.38;;;9.49;89.01
73748;BME280;62056;52.130;5.428;2022-09-27T01:11:41;99930.91;;;9.46;89.66
73748;BME280;62056;52.130;5.428;2022-09-27T01:14:41;99931.97;;;9.45;89.43
73748;BME280;62056;52.130;5.428;2022-09-27T01:18:07;99926.19;;;9.43;89.45
73748;BME280;62056;52.130;5.428;2022-09-27T01:20:45;99935.53;;;9.40;88.98
73748;BME280;62056;52.130;5.428;2022-09-27T01:23:44;99944.06;;;9.37;88.58
73748;BME280;62056;52.130;5.428;2022-09-27T01:26:41;99942.81;;;9.35;88.95
73748;BME280;62056;52.130;5.428;2022-09-27T01:29:42;99956.38;;;9.33;89.06
73748;BME280;62056;52.130;5.428;2022-09-27T01:32:20;99947.13;;;9.30;89.06
73748;BME280;62056;52.130;5.428;2022-09-27T01:35:01;99945.88;;;9.28;88.95
73748;BME280;62056;52.130;5.428;2022-09-27T01:37:38;99954.13;;;9.26;88.42
73748;BME280;62056;52.130;5.428;2022-09-27T01:40:16;99951.00;;;9.24;89.17
73748;BME280;62056;52.130;5.428;2022-09-27T01:42:58;99953.94;;;9.23;89.09
73748;BME280;62056;52.130;5.428;2022-09-27T01:45:34;99955.31;;;9.20;89.14
73748;BME280;62056;52.130;5.428;2022-09-27T01:48:08;99951.41;;;9.18;88.53
73748;BME280;62056;52.130;5.428;2022-09-27T01:50:44;99953.84;;;9.14;89.02
73748;BME280;62056;52.130;5.428;2022-09-27T01:53:21;99962.63;;;9.15;88.81
73748;BME280;62056;52.130;5.428;2022-09-27T01:55:52;99954.66;;;9.15;89.01
73748;BME280;62056;52.130;5.428;2022-09-27T01:58:32;99955.44;;;9.15;89.13
73748;BME280;62056;52.130;5.428;2022-09-27T02:01:02;99950.63;;;9.17;89.31
73748;BME280;62056;52.130;5.428;2022-09-27T02:03:33;99941.56;;;9.18;89.19
73748;BME280;62056;52.130;5.428;2022-09-27T02:06:09;99941.06;;;9.16;89.42
73748;BME280;62056;52.130;5.428;2022-09-27T02:08:45;99947.19;;;9.17;89.51
73748;BME280;62056;52.130;5.428;2022-09-27T02:11:14;99939.53;;;9.15;89.32
73748;BME280;62056;52.130;5.428;2022-09-27T02:13:46;99938.25;;;9.13;89.18
73748;BME280;62056;52.130;5.428;2022-09-27T02:16:46;99943.84;;;9.11;88.71
73748;BME280;62056;52.130;5.428;2022-09-27T02:22:19;99937.28;;;9.08;89.19
73748;BME280;62056;52.130;5.428;2022-09-27T02:25:04;99942.09;;;9.06;89.29
73748;BME280;62056;52.130;5.428;2022-09-27T02:27:37;99937.84;;;9.05;89.20
73748;BME280;62056;52.130;5.428;2022-09-27T02:30:09;99937.38;;;9.03;88.90
73748;BME280;62056;52.130;5.428;2022-09-27T02:32:37;99938.47;;;9.02;88.76
73748;BME280;62056;52.130;5.428;2022-09-27T02:35:10;99931.28;;;9.03;89.52
73748;BME280;62056;52.130;5.428;2022-09-27T02:37:38;99934.53;;;9.00;88.50
73748;BME280;62056;52.130;5.428;2022-09-27T02:40:06;99927.16;;;8.97;88.85
73748;BME280;62056;52.130;5.428;2022-09-27T02:42:33;99935.72;;;8.94;88.78
73748;BME280;62056;52.130;5.428;2022-09-27T02:45:02;99930.41;;;8.94;88.64
73748;BME280;62056;52.130;5.428;2022-09-27T02:47:36;99929.91;;;8.91;89.46
73748;BME280;62056;52.130;5.428;2022-09-27T02:55:23;99928.34;;;8.90;88.51
73748;BME280;62056;52.130;5.428;2022-09-27T02:58:21;99927.59;;;8.90;89.44
73748;BME280;62056;52.130;5.428;2022-09-27T03:00:59;99931.59;;;8.87;88.69
73748;BME280;62056;52.130;5.428;2022-09-27T03:03:36;99934.56;;;8.86;88.86
73748;BME280;62056;52.130;5.428;2022-09-27T03:06:10;99934.06;;;8.84;88.51
73748;BME280;62056;52.130;5.428;2022-09-27T03:08:38;99931.69;;;8.82;89.16
73748;BME280;62056;52.130;5.428;2022-09-27T03:11:04;99932.47;;;8.83;88.66
73748;BME280;62056;52.130;5.428;2022-09-27T03:13:31;99937.00;;;8.82;88.63
73748;BME280;62056;52.130;5.428;2022-09-27T03:16:19;99928.56;;;8.80;88.59
73748;BME280;62056;52.130;5.428;2022-09-27T03:18:46;99930.72;;;8.78;88.22
73748;BME280;62056;52.130;5.428;2022-09-27T03:21:12;99926.19;;;8.79;88.64
73748;BME280;62056;52.130;5.428;2022-09-27T03:23:39;99923.25;;;8.80;89.22
73748;BME280;62056;52.130;5.428;2022-09-27T03:26:05;99922.00;;;8.78;88.79
73748;BME280;62056;52.130;5.428;2022-09-27T03:28:38;99922.78;;;8.78;88.70
73748;BME280;62056;52.130;5.428;2022-09-27T03:31:04;99927.59;;;8.76;89.11
73748;BME280;62056;52.130;5.428;2022-09-27T03:33:31;99925.72;;;8.77;88.98
73748;BME280;62056;52.130;5.428;2022-09-27T03:35:59;99929.47;;;8.76;88.71
73748;BME280;62056;52.130;5.428;2022-09-27T03:38:25;99931.31;;;8.75;89.43
73748;BME280;62056;52.130;5.428;2022-09-27T03:40:52;99925.22;;;8.75;89.63
73748;BME280;62056;52.130;5.428;2022-09-27T03:43:18;99929.75;;;8.74;89.60
73748;BME280;62056;52.130;5.428;2022-09-27T03:45:45;99932.69;;;8.73;89.35
73748;BME280;62056;52.130;5.428;2022-09-27T03:48:13;99938.78;;;8.73;88.86
73748;BME280;62056;52.130;5.428;2022-09-27T03:50:39;99934.56;;;8.72;88.87
73748;BME280;62056;52.130;5.428;2022-09-27T03:53:06;99943.59;;;8.71;89.23
73748;BME280;62056;52.130;5.428;2022-09-27T03:55:34;99943.59;;;8.71;89.04
73748;BME280;62056;52.130;5.428;2022-09-27T03:58:01;99946.25;;;8.71;88.85
73748;BME280;62056;52.130;5.428;2022-09-27T04:00:28;99944.38;;;8.71;89.26
73748;BME280;62056;52.130;5.428;2022-09-27T04:02:57;99943.88;;;8.69;89.29
73748;BME280;62056;52.130;5.428;2022-09-27T04:05:26;99944.47;;;8.66;88.71
73748;BME280;62056;52.130;5.428;2022-09-27T04:07:53;99941.03;;;8.66;88.87
73748;BME280;62056;52.130;5.428;2022-09-27T04:10:20;99946.63;;;8.64;89.02
73748;BME280;62056;52.130;5.428;2022-09-27T04:12:47;99933.69;;;8.63;88.78
73748;BME280;62056;52.130;5.428;2022-09-27T04:15:13;99949.09;;;8.61;88.81
73748;BME280;62056;52.130;5.428;2022-09-27T04:17:41;99945.94;;;8.59;88.87
73748;BME280;62056;52.130;5.428;2022-09-27T04:20:10;99947.31;;;8.56;89.24
73748;BME280;62056;52.130;5.428;2022-09-27T04:22:40;99942.81;;;8.57;89.38
73748;BME280;62056;52.130;5.428;2022-09-27T04:25:09;99946.25;;;8.57;89.11
73748;BME280;62056;52.130;5.428;2022-09-27T04:27:36;99946.25;;;8.57;88.96
73748;BME280;62056;52.130;5.428;2022-09-27T04:30:03;99934.38;;;8.55;89.27
73748;BME280;62056;52.130;5.428;2022-09-27T04:32:30;99948.41;;;8.55;88.90
73748;BME280;62056;52.130;5.428;2022-09-27T04:34:57;99952.09;;;8.54;89.30
73748;BME280;62056;52.130;5.428;2022-09-27T04:37:42;99949.78;;;8.53;88.87
73748;BME280;62056;52.130;5.428;2022-09-27T04:40:10;99952.72;;;8.51;88.57
73748;BME280;62056;52.130;5.428;2022-09-27T04:42:36;99957.22;;;8.50;89.36
73748;BME280;62056;52.130;5.428;2022-09-27T04:45:03;99953.81;;;8.50;88.83
73748;BME280;62056;52.130;5.428;2022-09-27T04:47:30;99952.22;;;8.49;89.21
73748;BME280;62056;52.130;5.428;2022-09-27T04:49:57;99956.75;;;8.48;89.25
73748;BME280;62056;52.130;5.428;2022-09-27T04:52:24;99959.97;;;8.45;88.83
73748;BME280;62056;52.130;5.428;2022-09-27T04:54:51;99954.97;;;8.44;88.88
73748;BME280;62056;52.130;5.428;2022-09-27T04:57:17;99954.97;;;8.44;89.30
73748;BME280;62056;52.130;5.428;2022-09-27T04:59:44;99968.22;;;8.44;88.98
73748;BME280;62056;52.130;5.428;2022-09-27T05:02:10;99967.41;;;8.43;88.74
73748;BME280;62056;52.130;5.428;2022-09-27T05:04:37;99966.63;;;8.43;88.79
73748;BME280;62056;52.130;5.428;2022-09-27T05:07:03;99965.56;;;8.44;88.90
73748;BME280;62056;52.130;5.428;2022-09-27T05:09:30;99961.34;;;8.43;88.82
73748;BME280;62056;52.130;5.428;2022-09-27T05:11:57;99956.03;;;8.43;89.38
73748;BME280;62056;52.130;5.428;2022-09-27T05:14:24;99963.97;;;8.43;89.49
73748;BME280;62056;52.130;5.428;2022-09-27T05:16:52;99962.13;;;8.43;89.50
73748;BME280;62056;52.130;5.428;2022-09-27T05:19:19;99963.97;;;8.43;89.50
73748;BME280;62056;52.130;5.428;2022-09-27T05:21:46;99967.72;;;8.42;89.32
73748;BME280;62056;52.130;5.428;2022-09-27T05:24:13;99965.06;;;8.42;89.42
73748;BME280;62056;52.130;5.428;2022-09-27T05:26:39;99962.13;;;8.43;89.73
73748;BME280;62056;52.130;5.428;2022-09-27T05:29:07;99967.13;;;8.45;89.97
73748;BME280;62056;52.130;5.428;2022-09-27T05:31:33;99970.28;;;8.47;89.83
73748;BME280;62056;52.130;5.428;2022-09-27T05:34:00;99956.25;;;8.46;89.34
73748;BME280;62056;52.130;5.428;2022-09-27T05:36:26;99960.16;;;8.49;89.93
73748;BME280;62056;52.130;5.428;2022-09-27T05:38:53;99961.44;;;8.51;89.52
73748;BME280;62056;52.130;5.428;2022-09-27T05:41:19;99966.75;;;8.51;89.32
73748;BME280;62056;52.130;5.428;2022-09-27T05:43:46;99970.75;;;8.49;89.48
73748;BME280;62056;52.130;5.428;2022-09-27T05:46:12;99970.00;;;8.48;89.37
73748;BME280;62056;52.130;5.428;2022-09-27T05:48:39;99975.00;;;8.50;89.48
73748;BME280;62056;52.130;5.428;2022-09-27T05:51:06;99982.16;;;8.49;90.05
73748;BME280;62056;52.130;5.428;2022-09-27T05:53:32;99975.78;;;8.50;90.03
73748;BME280;62056;52.130;5.428;2022-09-27T05:56:03;99978.44;;;8.50;90.25
73748;BME280;62056;52.130;5.428;2022-09-27T05:58:30;99979.69;;;8.53;89.65
73748;BME280;62056;52.130;5.428;2022-09-27T06:00:56;99980.19;;;8.55;90.35
73748;BME280;62056;52.130;5.428;2022-09-27T06:03:23;99981.47;;;8.58;90.02
73748;BME280;62056;52.130;5.428;2022-09-27T06:05:49;99978.53;;;8.59;90.78
73748;BME280;62056;52.130;5.428;2022-09-27T06:08:17;99981.69;;;8.61;90.07
73748;BME280;62056;52.130;5.428;2022-09-27T06:10:45;99975.78;;;8.64;90.42
73748;BME280;62056;52.130;5.428;2022-09-27T06:13:14;99971.78;;;8.67;90.56
73748;BME280;62056;52.130;5.428;2022-09-27T06:15:43;99975.41;;;8.71;90.93
73748;BME280;62056;52.130;5.428;2022-09-27T06:18:12;99974.03;;;8.74;90.77
73748;BME280;62056;52.130;5.428;2022-09-27T06:20:40;99981.69;;;8.75;90.79
73748;BME280;62056;52.130;5.428;2022-09-27T06:23:10;99991.69;;;8.78;90.92
73748;BME280;62056;52.130;5.428;2022-09-27T06:25:38;99992.47;;;8.79;90.95
73748;BME280;62056;52.130;5.428;2022-09-27T06:28:04;100002.00;;;8.80;90.61
73748;BME280;62056;52.130;5.428;2022-09-27T06:30:31;100000.13;;;8.80;91.13
73748;BME280;62056;52.130;5.428;2022-09-27T06:32:59;100000.13;;;8.80;90.96
73748;BME280;62056;52.130;5.428;2022-09-27T06:35:28;100002.78;;;8.80;90.74
73748;BME280;62056;52.130;5.428;2022-09-27T06:37:54;99999.06;;;8.81;91.22
73748;BME280;62056;52.130;5.428;2022-09-27T06:40:22;99998.75;;;8.83;90.96
73748;BME280;62056;52.130;5.428;2022-09-27T06:42:52;100005.66;;;8.84;90.96
73748;BME280;62056;52.130;5.428;2022-09-27T06:45:19;100000.06;;;8.85;91.33
73748;BME280;62056;52.130;5.428;2022-09-27T06:47:45;100006.91;;;8.86;90.61
73748;BME280;62056;52.130;5.428;2022-09-27T06:50:12;100004.75;;;8.88;91.23
73748;BME280;62056;52.130;5.428;2022-09-27T06:52:46;100007.91;;;8.90;91.43
73748;BME280;62056;52.130;5.428;2022-09-27T06:55:13;100017.41;;;8.91;91.12
73748;BME280;62056;52.130;5.428;2022-09-27T06:57:40;100027.16;;;8.96;91.55
73748;BME280;62056;52.130;5.428;2022-09-27T07:00:25;100026.56;;;8.99;91.36
73748;BME280;62056;52.130;5.428;2022-09-27T07:02:53;100023.34;;;9.02;91.19
73748;BME280;62056;52.130;5.428;2022-09-27T07:05:20;100027.25;;;9.05;91.24
73748;BME280;62056;52.130;5.428;2022-09-27T07:07:47;100024.59;;;9.05;91.38
73748;BME280;62056;52.130;5.428;2022-09-27T07:10:14;100024.31;;;9.06;91.41
73748;BME280;62056;52.130;5.428;2022-09-27T07:12:43;100017.13;;;9.07;91.44
73748;BME280;62056;52.130;5.428;2022-09-27T07:15:14;100024.00;;;9.08;91.53
73748;BME280;62056;52.130;5.428;2022-09-27T07:17:41;100028.25;;;9.09;91.57
73748;BME280;62056;52.130;5.428;2022-09-27T07:20:13;100018.13;;;9.11;92.09
73748;BME280;62056;52.130;5.428;2022-09-27T07:22:43;100027.63;;;9.12;91.61
73748;BME280;62056;52.130;5.428;2022-09-27T07:25:10;100023.63;;;9.15;92.09
73748;BME280;62056;52.130;5.428;2022-09-27T07:27:37;100026.78;;;9.17;91.80
73748;BME280;62056;52.130;5.428;2022-09-27T07:30:08;100023.81;;;9.18;92.21
73748;BME280;62056;52.130;5.428;2022-09-27T07:32:35;100036.50;;;9.21;91.99
73748;BME280;62056;52.130;5.428;2022-09-27T07:35:06;100046.50;;;9.24;91.88
73748;BME280;62056;52.130;5.428;2022-09-27T07:37:34;100037.16;;;9.27;91.63
73748;BME280;62056;52.130;5.428;2022-09-27T07:40:02;100047.97;;;9.30;91.74
73748;BME280;62056;52.130;5.428;2022-09-27T07:42:30;100045.50;;;9.34;91.95
73748;BME280;62056;52.130;5.428;2022-09-27T07:44:56;100043.84;;;9.38;92.31
73748;BME280;62056;52.130;5.428;2022-09-27T07:47:24;100041.66;;;9.40;92.80
73748;BME280;62056;52.130;5.428;2022-09-27T07:49:51;100046.69;;;9.42;92.49
73748;BME280;62056;52.130;5.428;2022-09-27T07:52:18;100052.50;;;9.44;92.41
73748;BME280;62056;52.130;5.428;2022-09-27T07:54:45;100047.66;;;9.46;92.33
73748;BME280;62056;52.130;5.428;2022-09-27T07:57:13;100052.66;;;9.47;92.30
73748;BME280;62056;52.130;5.428;2022-09-27T07:59:40;100043.34;;;9.50;92.07
73748;BME280;62056;52.130;5.428;2022-09-27T08:02:15;100051.75;;;9.52;92.20
73748;BME280;62056;52.130;5.428;2022-09-27T08:04:42;100040.84;;;9.53;92.90
73748;BME280;62056;52.130;5.428;2022-09-27T08:07:14;100053.84;;;9.55;92.42
73748;BME280;62056;52.130;5.428;2022-09-27T08:09:41;100051.66;;;9.57;92.22
73748;BME280;62056;52.130;5.428;2022-09-27T08:12:08;100061.69;;;9.60;92.83
73748;BME280;62056;52.130;5.428;2022-09-27T08:14:48;100059.50;;;9.62;92.49
73748;BME280;62056;52.130;5.428;2022-09-27T08:17:15;100052.84;;;9.65;92.53
73748;BME280;62056;52.130;5.428;2022-09-27T08:19:52;100057.53;;;9.68;92.53
73748;BME280;62056;52.130;5.428;2022-09-27T08:22:18;100052.44;;;9.71;92.82
73748;BME280;62056;52.130;5.428;2022-09-27T08:24:47;100062.16;;;9.76;92.98
73748;BME280;62056;52.130;5.428;2022-09-27T08:27:15;100062.63;;;9.78;92.69
73748;BME280;62056;52.130;5.428;2022-09-27T08:29:41;100056.75;;;9.81;93.43
73748;BME280;62056;52.130;5.428;2022-09-27T08:32:09;100058.50;;;9.86;93.29
73748;BME280;62056;52.130;5.428;2022-09-27T08:34:37;100060.25;;;9.90;92.84
73748;BME280;62056;52.130;5.428;2022-09-27T08:37:03;100060.13;;;9.96;93.20
73748;BME280;62056;52.130;5.428;2022-09-27T08:39:33;100069.06;;;10.00;93.36
73748;BME280;62056;52.130;5.428;2022-09-27T08:44:49;100077.69;;;10.05;93.66
73748;BME280;62056;52.130;5.428;2022-09-27T08:47:38;100089.91;;;10.06;93.35
73748;BME280;62056;52.130;5.428;2022-09-27T08:50:26;100096.78;;;10.07;93.82
73748;BME280;62056;52.130;5.428;2022-09-27T08:55:44;100084.41;;;10.03;92.96
73748;BME280;62056;52.130;5.428;2022-09-27T08:58:28;100089.53;;;9.99;93.12
73748;BME280;62056;52.130;5.428;2022-09-27T09:01:00;100085.59;;;9.97;93.56
73748;BME280;62056;52.130;5.428;2022-09-27T09:03:30;100083.25;;;9.95;93.12
73748;BME280;62056;52.130;5.428;2022-09-27T09:06:18;100080.88;;;9.93;92.80
73748;BME280;62056;52.130;5.428;2022-09-27T09:09:02;100065.75;;;9.94;92.57
73748;BME280;62056;52.130;5.428;2022-09-27T09:18:20;100082.47;;;9.95;92.65
73748;BME280;62056;52.130;5.428;2022-09-27T09:27:10;100088.56;;;9.95;93.31
73748;BME280;62056;52.130;5.428;2022-09-27T09:33:17;100095.53;;;9.91;93.32
73748;BME280;62056;52.130;5.428;2022-09-27T09:35:48;100095.53;;;9.91;93.11
73748;BME280;62056;52.130;5.428;2022-09-27T09:38:22;100104.59;;;9.90;92.95
73748;BME280;62056;52.130;5.428;2022-09-27T09:41:01;100102.25;;;9.88;92.70
73748;BME280;62056;52.130;5.428;2022-09-27T09:43:33;100094.28;;;9.88;92.82
73748;BME280;62056;52.130;5.428;2022-09-27T09:46:11;100100.66;;;9.87;93.34
73748;BME280;62056;52.130;5.428;2022-09-27T09:48:45;100099.41;;;9.85;93.24
73748;BME280;62056;52.130;5.428;2022-09-27T09:51:23;100103.31;;;9.87;93.21
73748;BME280;62056;52.130;5.428;2022-09-27T09:53:57;100111.00;;;9.89;92.36
73748;BME280;62056;52.130;5.428;2022-09-27T09:56:35;100109.59;;;9.91;93.29
73748;BME280;62056;52.130;5.428;2022-09-27T09:59:11;100108.53;;;9.92;93.14
73748;BME280;62056;52.130;5.428;2022-09-27T10:01:45;100109.03;;;9.95;93.61
73748;BME280;62056;52.130;5.428;2022-09-27T10:04:24;100108.72;;;9.96;93.29
73748;BME280;62056;52.130;5.428;2022-09-27T10:06:54;100107.34;;;9.99;92.99
73748;BME280;62056;52.130;5.428;2022-09-27T10:09:25;100109.88;;;10.04;92.75
73748;BME280;62056;52.130;5.428;2022-09-27T10:11:53;100107.41;;;10.07;92.88
73748;BME280;62056;52.130;5.428;2022-09-27T10:14:21;100108.66;;;10.10;93.58
73748;BME280;62056;52.130;5.428;2022-09-27T10:16:52;100109.16;;;10.12;93.58
73748;BME280;62056;52.130;5.428;2022-09-27T10:19:25;100104.03;;;10.16;93.71
73748;BME280;62056;52.130;5.428;2022-09-27T10:22:18;100101.09;;;10.17;93.36
73748;BME280;62056;52.130;5.428;2022-09-27T10:25:02;100105.00;;;10.20;93.12
73748;BME280;62056;52.130;5.428;2022-09-27T10:27:39;100100.19;;;10.22;92.78
73748;BME280;62056;52.130;5.428;2022-09-27T10:30:29;100104.38;;;10.23;93.15
73748;BME280;62056;52.130;5.428;2022-09-27T10:33:03;100105.50;;;10.22;92.92
73748;BME280;62056;52.130;5.428;2022-09-27T10:35:34;100107.53;;;10.25;93.64
73748;BME280;62056;52.130;5.428;2022-09-27T10:40:50;100104.88;;;10.25;93.00
73748;BME280;62056;52.130;5.428;2022-09-27T10:46:14;100098.19;;;10.27;92.40
73748;BME280;62056;52.130;5.428;2022-09-27T10:48:41;100099.19;;;10.31;92.55
73748;BME280;62056;52.130;5.428;2022-09-27T10:51:29;100101.72;;;10.37;92.68
73748;BME280;62056;52.130;5.428;2022-09-27T10:53:56;100096.59;;;10.40;93.17
73748;BME280;62056;52.130;5.428;2022-09-27T10:56:28;100091.28;;;10.40;92.53
73748;BME280;62056;52.130;5.428;2022-09-27T10:58:57;100092.25;;;10.44;93.20
73748;BME280;62056;52.130;5.428;2022-09-27T11:01:26;100098.69;;;10.52;93.47
73748;BME280;62056;52.130;5.428;2022-09-27T11:04:03;100106.84;;;10.56;93.35
73748;BME280;62056;52.130;5.428;2022-09-27T11:06:31;100112.06;;;10.61;92.04
73748;BME280;62056;52.130;5.428;2022-09-27T11:09:16;100106.13;;;10.64;92.61
73748;BME280;62056;52.130;5.428;2022-09-27T11:11:44;100113.50;;;10.67;93.56
73748;BME280;62056;52.130;5.428;2022-09-27T11:14:22;100114.28;;;10.67;93.11
73748;BME280;62056;52.130;5.428;2022-09-27T11:17:07;100111.44;;;10.64;92.51
73748;BME280;62056;52.130;5.428;2022-09-27T11:19:51;100109.06;;;10.62;91.28
73748;BME280;62056;52.130;5.428;2022-09-27T11:25:36;100119.69;;;10.62;92.71
73748;BME280;62056;52.130;5.428;2022-09-27T11:28:21;100116.09;;;10.58;92.74
73748;BME280;62056;52.130;5.428;2022-09-27T11:31:04;100119.53;;;10.59;93.02
73748;BME280;62056;52.130;5.428;2022-09-27T11:33:49;100121.41;;;10.58;93.01
73748;BME280;62056;52.130;5.428;2022-09-27T11:45:39;100112.16;;;10.56;92.77
73748;BME280;62056;52.130;5.428;2022-09-27T11:57:37;100110.22;;;10.47;92.46
73748;BME280;62056;52.130;5.428;2022-09-27T12:00:13;100103.06;;;10.48;93.22
73748;BME280;62056;52.130;5.428;2022-09-27T12:06:04;100094.94;;;10.53;91.84
73748;BME280;62056;52.130;5.428;2022-09-27T12:08:43;100092.47;;;10.57;92.33
73748;BME280;62056;52.130;5.428;2022-09-27T12:11:36;100099.84;;;10.60;92.45
73748;BME280;62056;52.130;5.428;2022-09-27T12:16:53;100106.13;;;10.64;92.22
73748;BME280;62056;52.130;5.428;2022-09-27T12:19:25;100097.38;;;10.63;91.59
73748;BME280;62056;52.130;5.428;2022-09-27T12:21:57;100104.84;;;10.61;92.39
73748;BME280;62056;52.130;5.428;2022-09-27T12:24:27;100111.88;;;10.57;92.25
73748;BME280;62056;52.130;5.428;2022-09-27T12:27:00;100120.75;;;10.52;91.56
73748;BME280;62056;52.130;5.428;2022-09-27T12:29:34;100116.34;;;10.48;91.65
73748;BME280;62056;52.130;5.428;2022-09-27T12:32:17;100115.88;;;10.46;91.38
73748;BME280;62056;52.130;5.428;2022-09-27T12:37:33;100122.78;;;10.33;91.51
73748;BME280;62056;52.130;5.428;2022-09-27T12:40:06;100120.81;;;10.25;91.40
73748;BME280;62056;52.130;5.428;2022-09-27T12:42:57;100132.06;;;10.22;91.85
73748;BME280;62056;52.130;5.428;2022-09-27T12:45:50;100127.16;;;10.15;91.28
73748;BME280;62056;52.130;5.428;2022-09-27T12:48:32;100123.06;;;10.09;91.55
73748;BME280;62056;52.130;5.428;2022-09-27T12:51:09;100119.72;;;10.03;91.75
73748;BME280;62056;52.130;5.428;2022-09-27T12:53:52;100116.69;;;9.96;91.11
73748;BME280;62056;52.130;5.428;2022-09-27T12:59:39;100102.53;;;9.87;91.14
73748;BME280;62056;52.130;5.428;2022-09-27T13:02:35;100110.78;;;9.85;91.30
73748;BME280;62056;52.130;5.428;2022-09-27T13:11:34;100100.00;;;9.82;91.14
73748;BME280;62056;52.130;5.428;2022-09-27T13:14:17;100103.72;;;9.81;90.57
73748;BME280;62056;52.130;5.428;2022-09-27T13:16:45;100104.53;;;9.81;91.17
73748;BME280;62056;52.130;5.428;2022-09-27T13:19:38;100094.41;;;9.83;91.13
73748;BME280;62056;52.130;5.428;2022-09-27T13:22:08;100092.81;;;9.82;90.75
73748;BME280;62056;52.130;5.428;2022-09-27T13:24:41;100088.59;;;9.81;91.15
73748;BME280;62056;52.130;5.428;2022-09-27T13:32:36;100085.34;;;9.84;90.40
73748;BME280;62056;52.130;5.428;2022-09-27T13:35:23;100080.50;;;9.86;90.53
73748;BME280;62056;52.130;5.428;2022-09-27T13:37:53;100085.69;;;9.91;90.92
73748;BME280;62056;52.130;5.428;2022-09-27T13:40:45;100087.47;;;9.96;91.38
73748;BME280;62056;52.130;5.428;2022-09-27T13:43:20;100090.31;;;10.00;90.51
73748;BME280;62056;52.130;5.428;2022-09-27T13:45:59;100079.88;;;10.03;91.39
73748;BME280;62056;52.130;5.428;2022-09-27T13:51:33;100076.50;;;10.11;90.72
73748;BME280;62056;52.130;5.428;2022-09-27T13:54:08;100070.75;;;10.18;90.52
73748;BME280;62056;52.130;5.428;2022-09-27T13:56:53;100065.00;;;10.25;91.56
73748;BME280;62056;52.130;5.428;2022-09-27T13:59:46;100063.06;;;10.30;90.99
73748;BME280;62056;52.130;5.428;2022-09-27T14:02:22;100059.69;;;10.39;91.25
73748;BME280;62056;52.130;5.428;2022-09-27T14:04:51;100048.63;;;10.45;91.42
73748;BME280;62056;52.130;5.428;2022-09-27T14:07:24;100050.38;;;10.50;91.05
73748;BME280;62056;52.130;5.428;2022-09-27T14:09:53;100049.94;;;10.57;91.25
73748;BME280;62056;52.130;5.428;2022-09-27T14:12:24;100057.78;;;10.62;91.08
73748;BME280;62056;52.130;5.428;2022-09-27T14:14:54;100055.00;;;10.67;91.74
73748;BME280;62056;52.130;5.428;2022-09-27T14:17:22;100056.06;;;10.66;91.49
73748;BME280;62056;52.130;5.428;2022-09-27T14:19:50;100052.81;;;10.69;91.34
73748;BME280;62056;52.130;5.428;2022-09-27T14:22:21;100046.69;;;10.68;91.12
73748;BME280;62056;52.130;5.428;2022-09-27T14:24:50;100050.16;;;10.69;90.31
73748;BME280;62056;52.130;5.428;2022-09-27T14:27:24;100049.06;;;10.70;89.89
73748;BME280;62056;52.130;5.428;2022-09-27T14:29:53;100049.53;;;10.72;91.33
73748;BME280;62056;52.130;5.428;2022-09-27T14:32:24;100043.44;;;10.71;91.07
73748;BME280;62056;52.130;5.428;2022-09-27T14:35:20;100045.81;;;10.73;90.88
73748;BME280;62056;52.130;5.428;2022-09-27T14:38:09;100046.28;;;10.75;90.27
73748;BME280;62056;52.130;5.428;2022-09-27T14:41:01;100047.84;;;10.76;90.48
73748;BME280;62056;52.130;5.428;2022-09-27T14:43:29;100049.72;;;10.76;90.64
73748;BME280;62056;52.130;5.428;2022-09-27T14:46:02;100048.13;;;10.74;90.73
73748;BME280;62056;52.130;5.428;2022-09-27T14:48:37;100037.19;;;10.76;90.52
73748;BME280;62056;52.130;5.428;2022-09-27T14:53:49;100030.00;;;10.77;90.39
73748;BME280;62056;52.130;5.428;2022-09-27T14:56:19;100028.94;;;10.78;89.91
73748;BME280;62056;52.130;5.428;2022-09-27T14:58:54;100019.53;;;10.80;89.65